Time;durP1;ratioP1;P1;durP2;ratioP2;P2;SDS_P1;SDS_P2;PMS_P1;PMS_P2;Temp;Humidity;BMP_temperature;BMP_pressure;BME280_temperature;BME280_humidity;BME280_pressure;Samples;Min_cycle;Max_cycle;Signal;HPM_P1;HPM_P2
2023/12/13 00:01:27;;;;;;;14.65;9.18;;;8.10;99.90;;;;;;5008116;28;20033;-80
2023/12/13 00:03:53;;;;;;;13.88;8.70;;;8.00;99.90;;;;;;5007871;28;20044;-81
2023/12/13 00:06:19;;;;;;;14.38;9.50;;;8.10;99.90;;;;;;5022249;28;20080;-81
2023/12/13 00:08:45;;;;;;;14.30;8.15;;;8.10;99.90;;;;;;5005878;28;20045;-81
2023/12/13 00:11:11;;;;;;;14.38;7.93;;;8.10;99.90;;;;;;5018919;28;20045;-82
2023/12/13 00:13:36;;;;;;;12.38;7.43;;;8.00;99.90;;;;;;5016708;28;20128;-81
2023/12/13 00:16:02;;;;;;;12.65;7.57;;;8.00;99.90;;;;;;5034085;28;20076;-81
2023/12/13 00:18:28;;;;;;;12.98;7.38;;;7.90;99.90;;;;;;5016655;28;20069;-81
2023/12/13 00:20:54;;;;;;;14.27;7.97;;;7.90;99.90;;;;;;5035094;28;20041;-82
2023/12/13 00:23:20;;;;;;;14.05;8.10;;;7.90;99.90;;;;;;5018221;28;20033;-82
2023/12/13 00:25:45;;;;;;;13.05;8.00;;;7.90;99.90;;;;;;5017588;28;20091;-82
2023/12/13 00:28:11;;;;;;;14.05;8.05;;;7.90;99.90;;;;;;5035005;28;20065;-82
2023/12/13 00:30:36;;;;;;;13.32;7.38;;;7.90;99.90;;;;;;5015655;28;20147;-81
2023/12/13 00:33:02;;;;;;;13.25;7.45;;;7.90;99.90;;;;;;5018670;28;20409;-81
2023/12/13 00:35:28;;;;;;;15.57;9.02;;;7.90;99.90;;;;;;5018431;28;20049;-81
2023/12/13 00:37:54;;;;;;;13.57;8.15;;;7.90;99.90;;;;;;5017617;28;20042;-81
2023/12/13 00:40:24;;;;;;;15.70;8.68;;;8.00;99.90;;;;;;5016438;28;20038;-81
2023/12/13 00:42:50;;;;;;;16.63;9.95;;;7.90;99.90;;;;;;5034143;28;20088;-81
2023/12/13 00:45:16;;;;;;;18.50;11.27;;;7.90;99.90;;;;;;5034689;28;20033;-82
2023/12/13 00:47:42;;;;;;;16.55;10.23;;;7.90;99.90;;;;;;5033717;28;20040;-81
2023/12/13 00:50:08;;;;;;;19.13;11.57;;;8.00;99.90;;;;;;5033890;28;20034;-82
2023/12/13 00:52:34;;;;;;;20.77;12.27;;;7.90;99.90;;;;;;5017089;28;20496;-81
2023/12/13 00:55:04;;;;;;;21.92;11.82;;;8.00;99.90;;;;;;5018020;28;20045;-81
2023/12/13 00:57:33;;;;;;;20.48;13.05;;;7.90;99.90;;;;;;5017970;28;20045;-81
2023/12/13 00:59:59;;;;;;;19.50;13.07;;;8.10;99.90;;;;;;5049464;28;20045;-81
2023/12/13 01:02:27;;;;;;;23.15;12.80;;;8.10;99.90;;;;;;5032267;28;20044;-81
2023/12/13 01:04:53;;;;;;;20.63;13.10;;;8.10;99.90;;;;;;5017196;28;20120;-81
2023/12/13 01:07:18;;;;;;;19.92;12.93;;;8.10;99.90;;;;;;5034627;28;20552;-82
2023/12/13 01:09:44;;;;;;;20.40;11.75;;;8.10;99.90;;;;;;5017788;28;20501;-82
2023/12/13 01:12:10;;;;;;;22.60;13.20;;;8.10;99.90;;;;;;5030941;28;20048;-81
2023/12/13 01:14:35;;;;;;;21.95;13.32;;;8.10;99.90;;;;;;5034168;28;20125;-81
2023/12/13 01:17:01;;;;;;;23.73;13.68;;;8.20;99.90;;;;;;5034164;28;20064;-81
2023/12/13 01:19:27;;;;;;;21.88;13.55;;;8.20;99.90;;;;;;5033173;28;20048;-81
2023/12/13 01:21:52;;;;;;;22.95;14.00;;;8.10;99.90;;;;;;5015497;28;20072;-81
2023/12/13 01:24:18;;;;;;;21.98;14.20;;;8.10;99.90;;;;;;5016065;28;20375;-81
2023/12/13 01:26:44;;;;;;;22.55;13.40;;;8.10;99.90;;;;;;5017335;28;20481;-82
2023/12/13 01:29:09;;;;;;;21.75;13.85;;;8.20;99.90;;;;;;5017449;28;20433;-82
2023/12/13 01:31:35;;;;;;;23.40;15.15;;;8.10;99.90;;;;;;5016690;28;20386;-82
2023/12/13 01:34:06;;;;;;;21.65;13.90;;;8.00;99.90;;;;;;5016671;28;20453;-82
2023/12/13 01:36:32;;;;;;;22.40;14.52;;;8.10;99.90;;;;;;5017371;28;20077;-82
2023/12/13 01:38:57;;;;;;;21.77;14.10;;;8.10;99.90;;;;;;5033320;28;20456;-82
2023/12/13 01:41:23;;;;;;;23.00;14.48;;;8.10;99.90;;;;;;5033733;28;20087;-81
2023/12/13 01:43:49;;;;;;;20.75;13.93;;;8.10;99.90;;;;;;5030625;28;20033;-81
2023/12/13 01:46:16;;;;;;;23.20;13.18;;;8.10;99.90;;;;;;5031739;28;20046;-82
2023/12/13 01:48:43;;;;;;;24.25;15.10;;;8.20;99.90;;;;;;5032683;28;20034;-82
2023/12/13 01:51:11;;;;;;;24.85;15.18;;;8.20;99.90;;;;;;5050120;28;20045;-82
2023/12/13 01:53:38;;;;;;;22.10;14.02;;;8.20;99.90;;;;;;5031212;28;20505;-82
2023/12/13 01:56:05;;;;;;;22.85;13.07;;;8.10;99.90;;;;;;5049204;28;20494;-82
2023/12/13 01:58:32;;;;;;;23.40;15.32;;;8.20;99.90;;;;;;5033184;28;20060;-82
2023/12/13 02:00:58;;;;;;;23.88;15.38;;;8.20;99.90;;;;;;5016809;28;20045;-82
2023/12/13 02:03:25;;;;;;;24.45;15.80;;;8.30;99.90;;;;;;5031118;28;20041;-82
2023/12/13 02:05:52;;;;;;;24.02;15.75;;;8.30;99.90;;;;;;5031296;28;20042;-82
2023/12/13 02:08:18;;;;;;;24.95;15.73;;;8.20;99.90;;;;;;5049837;28;20072;-82
2023/12/13 02:10:44;;;;;;;23.70;15.40;;;8.20;99.90;;;;;;5033061;28;20077;-82
2023/12/13 02:13:10;;;;;;;24.45;16.30;;;8.10;99.90;;;;;;5031778;28;20049;-82
2023/12/13 02:15:36;;;;;;;25.52;15.43;;;8.10;99.90;;;;;;5047160;28;20060;-82
2023/12/13 02:18:02;;;;;;;27.55;16.30;;;8.10;99.90;;;;;;5016725;28;20482;-82
2023/12/13 02:20:28;;;;;;;27.67;15.75;;;8.00;99.90;;;;;;5032871;28;20048;-81
2023/12/13 02:22:53;;;;;;;26.35;16.23;;;8.00;99.90;;;;;;5014751;28;20042;-81
2023/12/13 02:25:32;;;;;;;24.40;15.65;;;8.10;99.90;;;;;;5014643;28;20120;-81
2023/12/13 02:27:58;;;;;;;26.90;16.27;;;8.00;99.90;;;;;;5049468;28;20077;-81
2023/12/13 02:30:24;;;;;;;25.83;15.15;;;8.00;99.90;;;;;;5049413;28;20077;-81
2023/12/13 02:32:50;;;;;;;26.52;16.13;;;8.00;99.90;;;;;;5015043;28;20034;-80
2023/12/13 02:35:16;;;;;;;24.02;15.30;;;8.10;99.90;;;;;;5015227;28;20029;-80
2023/12/13 02:37:48;;;;;;;26.52;16.58;;;8.00;99.90;;;;;;5031475;28;20038;-80
2023/12/13 02:40:14;;;;;;;25.27;15.65;;;8.10;99.90;;;;;;5012875;28;20125;-80
2023/12/13 02:42:40;;;;;;;25.25;16.27;;;8.00;99.90;;;;;;5014124;28;20128;-80
2023/12/13 02:45:08;;;;;;;25.15;15.20;;;8.00;99.90;;;;;;5032423;28;20073;-80
2023/12/13 02:47:34;;;;;;;25.67;16.02;;;8.00;99.90;;;;;;5047723;28;20056;-80
2023/12/13 02:49:59;;;;;;;26.30;14.95;;;8.00;99.90;;;;;;5048038;28;20033;-80
2023/12/13 02:52:25;;;;;;;24.00;15.07;;;8.00;99.90;;;;;;5015909;28;20045;-80
2023/12/13 02:54:51;;;;;;;23.13;14.93;;;7.90;99.90;;;;;;5015377;28;20408;-80
2023/12/13 02:57:16;;;;;;;25.85;15.57;;;8.00;99.90;;;;;;5014875;28;20037;-80
2023/12/13 02:59:42;;;;;;;20.55;13.43;;;7.90;99.90;;;;;;5014869;28;20084;-80
2023/12/13 03:02:08;;;;;;;22.08;13.68;;;7.90;99.90;;;;;;5015718;28;20042;-80
2023/12/13 03:04:33;;;;;;;25.13;14.48;;;7.90;99.90;;;;;;5030840;28;20042;-80
2023/12/13 03:06:59;;;;;;;23.10;14.13;;;7.90;99.90;;;;;;5030460;28;20029;-80
2023/12/13 03:09:24;;;;;;;22.88;14.07;;;7.90;99.90;;;;;;5032394;28;20119;-80
2023/12/13 03:11:50;;;;;;;22.15;13.00;;;7.90;99.90;;;;;;5032060;28;20041;-80
2023/12/13 03:14:16;;;;;;;23.08;13.02;;;7.90;99.90;;;;;;5014379;28;20037;-80
2023/12/13 03:16:41;;;;;;;20.75;12.57;;;7.90;99.90;;;;;;5014662;28;20631;-79
2023/12/13 03:19:07;;;;;;;20.95;12.05;;;7.80;99.90;;;;;;5031998;28;20076;-79
2023/12/13 03:21:32;;;;;;;17.48;11.20;;;7.90;99.90;;;;;;4997221;28;20141;-79
2023/12/13 03:23:58;;;;;;;16.92;10.48;;;7.90;99.90;;;;;;5024126;28;20041;-79
2023/12/13 03:26:24;;;;;;;18.27;10.60;;;7.90;99.90;;;;;;5031910;28;20041;-79
2023/12/13 03:28:49;;;;;;;17.67;10.90;;;7.80;99.90;;;;;;5028954;28;20045;-79
2023/12/13 03:31:15;;;;;;;17.02;10.45;;;7.90;99.90;;;;;;5014726;28;20124;-79
2023/12/13 03:33:41;;;;;;;18.38;10.30;;;7.90;99.90;;;;;;5030835;28;20441;-79
2023/12/13 03:36:14;;;;;;;16.70;9.95;;;7.90;99.90;;;;;;5015318;28;20148;-79
2023/12/13 03:38:39;;;;;;;16.67;10.93;;;7.90;99.90;;;;;;5013526;28;20069;-80
2023/12/13 03:41:05;;;;;;;17.67;10.27;;;7.90;99.90;;;;;;5031669;28;20045;-80
2023/12/13 03:43:31;;;;;;;17.65;10.80;;;7.90;99.90;;;;;;5013325;28;20383;-80
2023/12/13 03:45:57;;;;;;;17.35;10.75;;;7.90;99.90;;;;;;5030112;28;20129;-80
2023/12/13 03:48:22;;;;;;;17.63;10.13;;;7.80;99.90;;;;;;5029674;28;20080;-80
2023/12/13 03:50:48;;;;;;;17.55;9.80;;;7.90;99.90;;;;;;5030902;28;20068;-81
2023/12/13 03:53:14;;;;;;;17.15;9.60;;;8.00;99.90;;;;;;5028181;28;20403;-80
2023/12/13 03:55:39;;;;;;;16.33;9.80;;;7.90;99.90;;;;;;5030057;28;20038;-81
2023/12/13 03:58:05;;;;;;;17.70;10.45;;;7.90;99.90;;;;;;5029802;28;20037;-80
2023/12/13 04:00:31;;;;;;;19.00;10.68;;;7.90;99.90;;;;;;5014923;28;20054;-81
2023/12/13 04:02:57;;;;;;;16.20;9.32;;;8.00;99.90;;;;;;5018323;28;20100;-81
2023/12/13 04:05:22;;;;;;;16.77;9.75;;;7.90;99.90;;;;;;5014514;28;20505;-80
2023/12/13 04:07:48;;;;;;;17.27;10.65;;;7.90;99.90;;;;;;5030877;28;20049;-81
2023/12/13 04:10:15;;;;;;;16.45;9.95;;;7.90;99.90;;;;;;5030263;28;20048;-80
2023/12/13 04:12:40;;;;;;;16.92;10.75;;;7.90;99.90;;;;;;5030999;28;20045;-80
2023/12/13 04:15:06;;;;;;;16.48;9.85;;;7.90;99.90;;;;;;5013124;28;20056;-80
2023/12/13 04:17:32;;;;;;;16.65;9.40;;;7.90;99.90;;;;;;5031567;28;20398;-80
2023/12/13 04:19:58;;;;;;;18.95;9.90;;;7.90;99.90;;;;;;5011716;28;20042;-80
2023/12/13 04:22:24;;;;;;;16.52;10.43;;;7.90;99.90;;;;;;5030299;28;20051;-80
2023/12/13 04:24:49;;;;;;;15.13;8.85;;;7.90;99.90;;;;;;5041371;28;20033;-80
2023/12/13 04:27:15;;;;;;;14.63;9.32;;;8.00;99.90;;;;;;5014891;28;20111;-80
2023/12/13 04:29:41;;;;;;;15.25;9.05;;;8.00;99.90;;;;;;5012954;28;20034;-79
2023/12/13 04:32:06;;;;;;;15.63;9.32;;;8.00;99.90;;;;;;5014680;28;20038;-79
2023/12/13 04:34:32;;;;;;;17.25;9.10;;;8.00;99.90;;;;;;5028780;28;20103;-79
2023/12/13 04:36:58;;;;;;;15.65;10.00;;;7.90;99.90;;;;;;5033508;28;20531;-79
2023/12/13 04:39:24;;;;;;;15.10;9.27;;;8.00;99.90;;;;;;5017285;28;20126;-79
2023/12/13 04:41:49;;;;;;;13.13;8.88;;;8.00;99.90;;;;;;5033060;28;20141;-80
2023/12/13 04:44:15;;;;;;;15.88;9.30;;;8.10;99.90;;;;;;5033310;28;20038;-79
2023/12/13 04:46:41;;;;;;;16.92;9.68;;;8.00;99.90;;;;;;5029876;28;20045;-80
2023/12/13 04:49:07;;;;;;;16.65;10.70;;;8.00;99.90;;;;;;5017897;28;20121;-80
2023/12/13 04:51:32;;;;;;;17.83;10.02;;;8.00;99.90;;;;;;5030833;28;20029;-80
2023/12/13 04:53:58;;;;;;;17.20;10.77;;;7.90;99.90;;;;;;5017151;28;20087;-80
2023/12/13 04:56:24;;;;;;;15.75;9.25;;;7.90;99.90;;;;;;5031434;28;20033;-80
2023/12/13 04:58:50;;;;;;;15.65;10.07;;;7.90;99.90;;;;;;5017802;28;20554;-80
2023/12/13 05:01:16;;;;;;;15.02;9.82;;;7.90;99.90;;;;;;5016692;28;20057;-80
2023/12/13 05:03:42;;;;;;;16.02;10.80;;;7.90;99.90;;;;;;5015226;28;20041;-80
2023/12/13 05:06:08;;;;;;;17.33;10.38;;;7.90;99.90;;;;;;5033197;28;20033;-80
2023/12/13 05:08:33;;;;;;;16.63;10.52;;;7.90;99.90;;;;;;5017263;28;20067;-80
2023/12/13 05:11:00;;;;;;;16.58;10.95;;;8.00;99.90;;;;;;5017831;28;20504;-80
2023/12/13 05:13:26;;;;;;;17.48;11.60;;;8.00;99.90;;;;;;5014763;28;20037;-80
2023/12/13 05:15:52;;;;;;;16.10;10.52;;;8.00;99.90;;;;;;5031681;28;20041;-80
2023/12/13 05:18:18;;;;;;;18.13;11.02;;;7.90;99.90;;;;;;5016153;28;20116;-81
2023/12/13 05:20:44;;;;;;;17.92;12.00;;;7.90;99.90;;;;;;5033976;28;20546;-80
2023/12/13 05:23:10;;;;;;;18.33;10.40;;;7.90;99.90;;;;;;5030095;28;20042;-80
2023/12/13 05:25:37;;;;;;;17.40;10.90;;;8.00;99.90;;;;;;5016504;28;20040;-80
2023/12/13 05:28:03;;;;;;;17.80;11.63;;;7.90;99.90;;;;;;5033187;28;20111;-80
2023/12/13 05:30:29;;;;;;;22.42;11.80;;;7.90;99.90;;;;;;5017369;28;20034;-80
2023/12/13 05:32:55;;;;;;;17.23;11.23;;;7.90;99.90;;;;;;5015300;28;20041;-81
2023/12/13 05:35:20;;;;;;;18.20;11.70;;;7.90;99.90;;;;;;5015225;28;20065;-81
2023/12/13 05:37:46;;;;;;;17.58;11.55;;;7.90;99.90;;;;;;5049490;28;20111;-80
2023/12/13 05:40:12;;;;;;;15.93;10.90;;;7.90;99.90;;;;;;5016493;28;20084;-80
2023/12/13 05:42:39;;;;;;;17.95;11.93;;;7.90;99.90;;;;;;5032820;28;20046;-81
2023/12/13 05:45:05;;;;;;;19.40;11.65;;;7.90;99.90;;;;;;5031578;28;20060;-81
2023/12/13 05:47:31;;;;;;;15.57;11.38;;;7.90;99.90;;;;;;5049692;28;20483;-80
2023/12/13 05:49:57;;;;;;;16.98;11.77;;;7.90;99.90;;;;;;5032402;28;20029;-80
2023/12/13 05:52:23;;;;;;;22.13;12.38;;;7.90;99.90;;;;;;5017229;28;20048;-80
2023/12/13 05:54:49;;;;;;;17.83;10.88;;;7.90;99.90;;;;;;5015502;28;20088;-81
2023/12/13 05:57:15;;;;;;;17.13;11.70;;;7.90;99.90;;;;;;5015241;28;20481;-81
2023/12/13 05:59:40;;;;;;;15.23;10.93;;;7.90;99.90;;;;;;5016662;28;20057;-81
2023/12/13 06:02:06;;;;;;;18.10;11.73;;;7.90;99.90;;;;;;5016093;28;20037;-80
2023/12/13 06:04:32;;;;;;;18.92;11.48;;;7.90;99.90;;;;;;5016388;28;20037;-81
2023/12/13 06:06:57;;;;;;;16.50;10.55;;;7.90;99.90;;;;;;5015125;28;20037;-81
2023/12/13 06:09:23;;;;;;;19.92;13.00;;;7.90;99.90;;;;;;5016676;28;20041;-81
2023/12/13 06:11:49;;;;;;;16.88;11.73;;;7.90;99.90;;;;;;5015824;28;20052;-81
2023/12/13 06:14:14;;;;;;;19.38;11.82;;;8.00;99.90;;;;;;5015059;28;20041;-81
2023/12/13 06:16:40;;;;;;;17.73;12.35;;;7.90;99.90;;;;;;5046808;28;20052;-81
2023/12/13 06:19:06;;;;;;;18.67;12.40;;;7.90;99.90;;;;;;5033020;28;20095;-81
2023/12/13 06:21:33;;;;;;;17.35;11.35;;;7.90;99.90;;;;;;5030619;28;20046;-81
2023/12/13 06:24:00;;;;;;;18.02;12.10;;;7.90;99.90;;;;;;5015958;28;20124;-81
2023/12/13 06:26:26;;;;;;;19.20;12.88;;;7.80;99.90;;;;;;5013925;28;20439;-81
2023/12/13 06:28:52;;;;;;;17.67;11.80;;;8.00;99.90;;;;;;5029457;28;20124;-80
2023/12/13 06:31:18;;;;;;;18.42;11.82;;;8.00;99.90;;;;;;5016248;28;20128;-81
2023/12/13 06:33:43;;;;;;;19.23;13.40;;;8.00;99.90;;;;;;5015543;28;20501;-81
2023/12/13 06:36:09;;;;;;;19.10;12.23;;;8.00;99.90;;;;;;5031904;28;20152;-81
2023/12/13 06:38:35;;;;;;;20.27;12.23;;;8.00;99.90;;;;;;5014370;28;20045;-81
2023/12/13 06:41:00;;;;;;;21.00;12.88;;;8.00;99.90;;;;;;5014618;28;20437;-81
2023/12/13 06:43:26;;;;;;;19.60;12.52;;;8.00;99.90;;;;;;5031976;28;20034;-81
2023/12/13 06:45:52;;;;;;;20.35;12.93;;;8.00;99.90;;;;;;5030140;28;20120;-81
2023/12/13 06:48:17;;;;;;;19.17;13.00;;;8.00;99.90;;;;;;4999302;28;20137;-81
2023/12/13 06:50:43;;;;;;;18.33;12.30;;;7.90;99.90;;;;;;5029477;28;20442;-81
2023/12/13 06:53:09;;;;;;;20.30;13.27;;;8.00;99.90;;;;;;5016037;28;20034;-81
2023/12/13 06:55:35;;;;;;;21.38;13.60;;;7.90;99.90;;;;;;5014205;28;20120;-80
2023/12/13 06:58:00;;;;;;;18.38;12.48;;;7.90;99.90;;;;;;5014356;28;20120;-81
2023/12/13 07:00:27;;;;;;;19.05;13.25;;;7.90;99.90;;;;;;5013129;28;20061;-81
2023/12/13 07:02:53;;;;;;;19.17;12.73;;;7.90;99.90;;;;;;5030228;28;20049;-81
2023/12/13 07:05:19;;;;;;;17.67;12.55;;;7.80;99.90;;;;;;5015748;28;20034;-81
2023/12/13 07:07:46;;;;;;;20.42;13.55;;;7.90;99.90;;;;;;5014124;28;20389;-80
2023/12/13 07:10:13;;;;;;;20.70;12.70;;;8.00;99.90;;;;;;5048755;28;20239;-81
2023/12/13 07:12:40;;;;;;;22.23;13.70;;;8.00;99.90;;;;;;5030816;28;20045;-81
2023/12/13 07:15:07;;;;;;;20.35;13.60;;;7.90;99.90;;;;;;5029627;28;20513;-81
2023/12/13 07:17:33;;;;;;;18.67;13.00;;;7.90;99.90;;;;;;5044241;28;20128;-81
2023/12/13 07:19:59;;;;;;;21.98;14.20;;;7.90;99.90;;;;;;5047685;28;20150;-81
2023/12/13 07:22:24;;;;;;;20.00;13.63;;;7.90;99.90;;;;;;5013426;28;20095;-81
2023/12/13 07:24:50;;;;;;;20.48;12.75;;;8.00;99.90;;;;;;5031934;28;20045;-81
2023/12/13 07:27:16;;;;;;;23.67;13.70;;;7.90;99.90;;;;;;5014327;28;20387;-81
2023/12/13 07:29:42;;;;;;;21.45;13.25;;;7.90;99.90;;;;;;5012919;28;20114;-81
2023/12/13 07:32:09;;;;;;;20.08;13.25;;;8.00;99.90;;;;;;5029843;28;20052;-80
2023/12/13 07:34:36;;;;;;;21.05;13.88;;;7.80;99.90;;;;;;5030842;28;20092;-81
2023/12/13 07:37:02;;;;;;;20.27;13.57;;;7.90;99.90;;;;;;5031974;28;20060;-81
2023/12/13 07:39:30;;;;;;;20.25;13.85;;;7.90;99.90;;;;;;5029621;28;20037;-81
2023/12/13 07:41:56;;;;;;;19.50;13.00;;;7.80;99.90;;;;;;5038400;28;20034;-81
2023/12/13 07:44:22;;;;;;;20.80;14.13;;;7.80;99.90;;;;;;5015019;28;20393;-81
2023/12/13 07:46:48;;;;;;;21.38;14.43;;;7.90;99.90;;;;;;5030968;28;20033;-81
2023/12/13 07:49:13;;;;;;;19.35;12.43;;;7.90;99.90;;;;;;5013861;28;20516;-81
2023/12/13 07:51:39;;;;;;;18.10;13.38;;;7.90;99.90;;;;;;5014682;28;20073;-84
2023/12/13 07:54:05;;;;;;;16.65;10.90;;;7.90;99.90;;;;;;5031091;28;20045;-78
2023/12/13 07:56:30;;;;;;;20.50;13.57;;;7.90;99.90;;;;;;5010561;28;20088;-79
2023/12/13 07:58:56;;;;;;;22.13;14.27;;;7.90;99.90;;;;;;5011677;28;20128;-79
2023/12/13 08:01:22;;;;;;;19.33;13.23;;;7.90;99.90;;;;;;5011849;28;20045;-79
2023/12/13 08:03:48;;;;;;;21.63;13.60;;;7.90;99.90;;;;;;5012133;28;20478;-79
2023/12/13 08:06:15;;;;;;;21.95;14.25;;;7.90;99.90;;;;;;5012278;28;20034;-79
2023/12/13 08:08:41;;;;;;;19.23;12.18;;;7.90;99.90;;;;;;5015308;28;20397;-79
2023/12/13 08:11:08;;;;;;;20.02;13.15;;;7.90;99.90;;;;;;5017189;28;20129;-79
2023/12/13 08:13:34;;;;;;;22.15;14.57;;;7.90;99.90;;;;;;5035391;28;20042;-78
2023/12/13 08:16:00;;;;;;;22.30;15.20;;;7.90;99.90;;;;;;5019092;28;20045;-78
2023/12/13 08:18:26;;;;;;;21.02;14.55;;;7.80;99.90;;;;;;5033831;28;20505;-78
2023/12/13 08:20:52;;;;;;;21.13;14.50;;;7.90;99.90;;;;;;5018648;28;20053;-79
2023/12/13 08:23:17;;;;;;;22.33;15.45;;;7.90;99.90;;;;;;5035153;28;20037;-78
2023/12/13 08:25:44;;;;;;;21.27;14.40;;;7.80;99.90;;;;;;5035093;28;20041;-78
2023/12/13 08:28:09;;;;;;;24.83;14.55;;;7.90;99.90;;;;;;5017390;28;20104;-78
2023/12/13 08:30:35;;;;;;;22.42;13.73;;;8.00;99.90;;;;;;5035048;28;20512;-78
2023/12/13 08:33:02;;;;;;;18.45;13.20;;;7.90;99.90;;;;;;5018492;28;20034;-78
2023/12/13 08:35:28;;;;;;;20.08;14.02;;;7.90;99.90;;;;;;5035193;28;20042;-78
2023/12/13 08:37:54;;;;;;;21.52;13.88;;;7.90;99.90;;;;;;5033753;28;20579;-78
2023/12/13 08:40:20;;;;;;;22.88;13.80;;;7.90;99.90;;;;;;5018353;28;20037;-78
2023/12/13 08:42:46;;;;;;;20.67;13.65;;;7.90;99.90;;;;;;5018292;28;20382;-78
2023/12/13 08:45:12;;;;;;;20.73;13.55;;;7.90;99.90;;;;;;5034803;28;20036;-78
2023/12/13 08:47:38;;;;;;;20.60;13.82;;;7.90;99.90;;;;;;5017176;28;20041;-79
2023/12/13 08:50:04;;;;;;;24.05;14.52;;;8.00;99.90;;;;;;5051137;28;20044;-78
2023/12/13 08:52:30;;;;;;;26.33;15.25;;;7.90;99.90;;;;;;5018099;28;20033;-78
2023/12/13 08:54:56;;;;;;;24.58;15.43;;;7.90;99.90;;;;;;5018314;28;20064;-78
2023/12/13 08:57:22;;;;;;;22.10;13.63;;;8.00;99.90;;;;;;5034486;28;20052;-78
2023/12/13 08:59:47;;;;;;;23.90;13.98;;;8.00;99.90;;;;;;5017051;28;20464;-79
2023/12/13 09:02:13;;;;;;;19.73;14.07;;;8.00;99.90;;;;;;5034439;28;20037;-79
2023/12/13 09:04:38;;;;;;;22.77;14.02;;;8.00;99.90;;;;;;5034755;28;20128;-78
2023/12/13 09:07:04;;;;;;;21.33;13.93;;;8.00;99.90;;;;;;5017954;28;20040;-78
2023/12/13 09:09:32;;;;;;;25.98;14.95;;;7.90;99.90;;;;;;5033391;28;20041;-79
2023/12/13 09:11:58;;;;;;;18.27;12.50;;;8.00;99.90;;;;;;5034250;28;20041;-78
2023/12/13 09:14:25;;;;;;;22.95;14.00;;;7.90;99.90;;;;;;5017783;28;20037;-78
2023/12/13 09:16:51;;;;;;;24.10;14.90;;;8.10;99.90;;;;;;5017691;28;20079;-78
2023/12/13 09:19:16;;;;;;;23.58;14.43;;;8.10;99.90;;;;;;5016603;28;20131;-78
2023/12/13 09:21:42;;;;;;;19.80;13.48;;;8.10;99.90;;;;;;5016512;28;20433;-78
2023/12/13 09:24:08;;;;;;;21.35;15.00;;;8.10;99.90;;;;;;5017578;28;20095;-78
2023/12/13 09:26:35;;;;;;;25.25;14.52;;;8.20;99.90;;;;;;5017780;28;20033;-78
2023/12/13 09:29:02;;;;;;;23.95;15.30;;;8.10;99.90;;;;;;5033544;28;20041;-79
2023/12/13 09:31:28;;;;;;;23.77;14.57;;;8.20;99.90;;;;;;5030794;28;20049;-78
2023/12/13 09:33:54;;;;;;;23.23;14.85;;;8.20;99.90;;;;;;5030596;28;20038;-78
2023/12/13 09:36:20;;;;;;;24.52;15.25;;;8.20;99.90;;;;;;5030826;28;20092;-78
2023/12/13 09:38:46;;;;;;;24.83;15.20;;;8.20;99.90;;;;;;5030430;28;20041;-78
2023/12/13 09:41:20;;;;;;;23.92;14.63;;;8.20;99.90;;;;;;5032600;28;20045;-78
2023/12/13 09:43:46;;;;;;;27.65;15.88;;;8.30;99.90;;;;;;5017241;28;20497;-78
2023/12/13 09:46:13;;;;;;;27.25;16.17;;;8.20;99.90;;;;;;5017116;28;20569;-78
2023/12/13 09:48:40;;;;;;;22.80;14.75;;;8.30;99.90;;;;;;5033556;28;20120;-78
2023/12/13 09:51:09;;;;;;;22.23;14.77;;;8.30;99.90;;;;;;5032649;28;20120;-78
2023/12/13 09:53:38;;;;;;;24.20;14.57;;;8.20;99.90;;;;;;5015878;28;20551;-79
2023/12/13 09:56:04;;;;;;;25.83;15.68;;;8.30;99.90;;;;;;5033458;28;20049;-78
2023/12/13 09:58:30;;;;;;;25.60;15.77;;;8.30;99.90;;;;;;5033111;28;20068;-79
2023/12/13 10:00:56;;;;;;;28.17;15.82;;;8.30;99.90;;;;;;5016828;28;20405;-78
2023/12/13 10:03:22;;;;;;;25.00;14.77;;;8.40;99.90;;;;;;5016286;28;20045;-79
2023/12/13 10:05:48;;;;;;;27.00;15.32;;;8.30;99.90;;;;;;5033488;28;20071;-79
2023/12/13 10:08:14;;;;;;;25.52;15.40;;;8.40;99.90;;;;;;5033167;28;20069;-79
2023/12/13 10:10:43;;;;;;;27.13;15.50;;;8.40;99.90;;;;;;5016742;28;20117;-78
2023/12/13 10:13:10;;;;;;;24.85;15.00;;;8.40;99.90;;;;;;5015619;28;20509;-78
2023/12/13 10:15:36;;;;;;;28.80;16.67;;;8.50;99.90;;;;;;5033086;28;20053;-79
2023/12/13 10:18:02;;;;;;;30.13;15.57;;;8.50;99.90;;;;;;5016386;28;20120;-79
2023/12/13 10:20:31;;;;;;;26.55;15.77;;;8.40;99.90;;;;;;5032939;28;20075;-79
2023/12/13 10:22:57;;;;;;;27.95;15.70;;;8.40;99.90;;;;;;5015792;28;20077;-79
2023/12/13 10:25:23;;;;;;;28.08;15.43;;;8.40;99.90;;;;;;5015674;28;20033;-78
2023/12/13 10:27:53;;;;;;;31.30;16.73;;;8.50;99.90;;;;;;5016293;28;20073;-79
2023/12/13 10:30:19;;;;;;;25.77;15.75;;;8.40;99.90;;;;;;5016647;28;20045;-78
2023/12/13 10:32:44;;;;;;;32.28;16.75;;;8.40;99.90;;;;;;5016225;28;20485;-79
2023/12/13 10:35:10;;;;;;;28.98;16.67;;;8.50;99.90;;;;;;5031216;28;20046;-78
2023/12/13 10:37:36;;;;;;;33.78;17.60;;;8.50;99.90;;;;;;5016291;28;20069;-78
2023/12/13 10:40:06;;;;;;;28.42;17.10;;;8.50;99.90;;;;;;5032713;28;20114;-78
2023/12/13 10:42:37;;;;;;;34.53;16.33;;;8.50;99.90;;;;;;5032572;28;20049;-78
2023/12/13 10:45:05;;;;;;;33.47;17.95;;;8.50;99.90;;;;;;5015030;28;20079;-78
2023/12/13 10:47:33;;;;;;;30.38;18.77;;;8.50;99.90;;;;;;5016319;28;20041;-78
2023/12/13 10:50:00;;;;;;;31.08;16.35;;;8.50;99.90;;;;;;5032367;28;20049;-78
2023/12/13 10:52:27;;;;;;;31.58;16.30;;;8.50;99.90;;;;;;5030375;28;20042;-78
2023/12/13 10:54:53;;;;;;;26.30;16.40;;;8.50;99.90;;;;;;5015926;28;20041;-79
2023/12/13 10:57:19;;;;;;;29.42;16.05;;;8.50;99.90;;;;;;5015960;28;20042;-78
2023/12/13 10:59:46;;;;;;;21.90;13.65;;;8.50;99.90;;;;;;5032072;28;20516;-78
2023/12/13 11:02:15;;;;;;;28.13;15.95;;;8.50;99.90;;;;;;5031169;28;20135;-78
2023/12/13 11:04:43;;;;;;;27.65;16.25;;;8.50;99.90;;;;;;5016003;28;20049;-78
2023/12/13 11:07:09;;;;;;;23.83;14.98;;;8.50;99.90;;;;;;5031380;28;20064;-78
2023/12/13 11:09:35;;;;;;;26.70;15.25;;;8.50;99.90;;;;;;5032015;28;20091;-79
2023/12/13 11:12:11;;;;;;;28.35;17.33;;;8.50;99.90;;;;;;5032113;28;20048;-78
2023/12/13 11:14:40;;;;;;;27.73;16.58;;;8.50;99.90;;;;;;5032022;28;20057;-78
2023/12/13 11:17:06;;;;;;;35.25;18.60;;;8.50;99.90;;;;;;5009495;28;20512;-83
2023/12/13 11:19:32;;;;;;;28.50;16.55;;;8.60;99.90;;;;;;5025465;28;20042;-80
2023/12/13 11:21:58;;;;;;;32.63;18.38;;;8.50;99.90;;;;;;5025636;28;20038;-79
2023/12/13 11:24:28;;;;;;;28.60;17.88;;;8.50;99.90;;;;;;5044012;28;20080;-79
2023/12/13 11:26:58;;;;;;;35.88;20.40;;;8.50;99.90;;;;;;5017574;28;20045;-79
2023/12/13 11:29:29;;;;;;;33.33;18.42;;;8.50;99.90;;;;;;5017567;28;20104;-79
2023/12/13 11:32:00;;;;;;;32.65;18.52;;;8.50;99.90;;;;;;5015138;28;20080;-79
2023/12/13 11:34:41;;;;;;;29.33;17.23;;;8.60;99.90;;;;;;5014861;28;20045;-79
2023/12/13 11:37:08;;;;;;;31.27;18.00;;;8.50;99.90;;;;;;5013332;28;20060;-79
2023/12/13 11:39:35;;;;;;;30.83;18.10;;;8.50;99.90;;;;;;5012264;28;20037;-79
2023/12/13 11:42:03;;;;;;;28.08;17.80;;;8.50;99.90;;;;;;5041421;28;20053;-79
2023/12/13 11:44:30;;;;;;;29.08;17.15;;;8.60;99.90;;;;;;5015556;28;20079;-79
2023/12/13 11:46:59;;;;;;;36.47;19.05;;;8.60;99.90;;;;;;5018916;28;20041;-79
2023/12/13 11:49:26;;;;;;;37.15;20.70;;;8.60;99.90;;;;;;5018280;28;20095;-79
2023/12/13 11:51:56;;;;;;;39.33;20.95;;;8.60;99.90;;;;;;5016805;28;20409;-79
2023/12/13 11:54:22;;;;;;;35.88;19.25;;;8.60;99.90;;;;;;5036360;28;20041;-79
2023/12/13 11:56:48;;;;;;;33.95;18.63;;;8.60;99.90;;;;;;5017029;28;20068;-79
2023/12/13 11:59:13;;;;;;;30.17;18.95;;;8.60;99.90;;;;;;5035857;28;20085;-79
2023/12/13 12:01:40;;;;;;;31.35;18.40;;;8.60;99.90;;;;;;5033640;28;20050;-79
2023/12/13 12:04:06;;;;;;;31.77;17.90;;;8.60;99.90;;;;;;5015306;28;20037;-79
2023/12/13 12:06:32;;;;;;;30.92;17.17;;;8.60;99.90;;;;;;5030896;28;20103;-79
2023/12/13 12:09:00;;;;;;;32.70;18.27;;;8.60;99.90;;;;;;5035174;28;20026;-79
2023/12/13 12:11:26;;;;;;;32.55;18.92;;;8.60;99.90;;;;;;5034683;28;20040;-79
2023/12/13 12:13:54;;;;;;;34.75;18.65;;;8.60;99.90;;;;;;5035391;28;20033;-79
2023/12/13 12:16:19;;;;;;;31.33;18.50;;;8.50;99.90;;;;;;5047485;28;20041;-79
2023/12/13 12:18:46;;;;;;;28.73;17.85;;;8.60;99.90;;;;;;5034730;28;20033;-79
2023/12/13 12:21:12;;;;;;;34.20;18.98;;;8.60;99.90;;;;;;5018883;28;20046;-79
2023/12/13 12:23:39;;;;;;;31.77;18.80;;;8.60;99.90;;;;;;4998967;28;20044;-79
2023/12/13 12:26:07;;;;;;;29.25;18.08;;;8.60;99.90;;;;;;5009480;28;20079;-79
2023/12/13 12:28:33;;;;;;;30.58;18.17;;;8.60;99.90;;;;;;5031529;28;20045;-79
2023/12/13 12:30:59;;;;;;;33.38;18.55;;;8.60;99.90;;;;;;5016883;28;20042;-79
2023/12/13 12:33:24;;;;;;;27.88;16.63;;;8.50;99.90;;;;;;5016888;28;20489;-79